createdAt,value
2019-01-09T00:01:49.241Z,1.13
2019-01-09T00:04:19.280Z,1.40
2019-01-09T00:06:49.322Z,1.10
2019-01-09T00:09:19.407Z,1.20
2019-01-09T00:11:49.751Z,1.00
2019-01-09T00:14:19.835Z,1.03
2019-01-09T00:16:49.950Z,1.30
2019-01-09T00:19:20.029Z,1.13
2019-01-09T00:21:50.126Z,1.03
2019-01-09T00:24:20.177Z,0.93
2019-01-09T00:26:50.600Z,0.80
2019-01-09T00:29:20.684Z,1.00
2019-01-09T00:31:50.789Z,1.30
2019-01-09T00:34:21.082Z,1.23
2019-01-09T00:36:51.302Z,1.13
2019-01-09T00:39:21.359Z,0.90
2019-01-09T00:41:51.903Z,1.07
2019-01-09T00:44:21.977Z,1.00
2019-01-09T00:46:52.021Z,0.97
2019-01-09T00:49:22.098Z,1.23
2019-01-09T00:51:52.135Z,0.90
2019-01-09T00:54:22.283Z,1.00
2019-01-09T00:56:52.468Z,0.90
2019-01-09T00:59:22.624Z,1.10
2019-01-09T01:02:11.328Z,1.20
2019-01-09T01:04:55.880Z,1.33
2019-01-09T01:08:06.766Z,1.10
2019-01-09T01:11:35.435Z,1.10
2019-01-09T01:14:55.059Z,1.20
2019-01-09T01:18:00.974Z,0.93
2019-01-09T01:20:51.301Z,1.10
2019-01-09T01:23:56.988Z,1.00
2019-01-09T01:26:45.846Z,0.90
2019-01-09T01:29:49.557Z,1.23
2019-01-09T01:33:09.543Z,1.00
2019-01-09T01:36:17.073Z,1.00
2019-01-09T01:39:23.204Z,0.87
2019-01-09T01:42:43.052Z,1.17
2019-01-09T01:45:47.544Z,0.93
2019-01-09T01:49:03.923Z,1.00
2019-01-09T01:52:12.087Z,1.10
2019-01-09T01:55:20.246Z,0.80
2019-01-09T01:58:16.883Z,0.90
2019-01-09T02:01:30.874Z,0.90
2019-01-09T02:04:40.877Z,0.87
2019-01-09T02:07:43.531Z,1.00
2019-01-09T02:10:57.732Z,1.00
2019-01-09T02:14:02.349Z,0.90
2019-01-09T02:17:08.498Z,0.90
2019-01-09T02:19:48.331Z,0.97
2019-01-09T02:22:40.047Z,1.10
2019-01-09T02:25:42.698Z,0.90
2019-01-09T02:28:58.352Z,0.90
2019-01-09T02:32:24.485Z,1.00
2019-01-09T02:34:54.536Z,0.73
2019-01-09T02:37:24.591Z,0.90
2019-01-09T02:39:54.649Z,1.10
2019-01-09T02:42:24.709Z,1.20
2019-01-09T02:44:55.061Z,1.07
2019-01-09T02:47:25.279Z,1.00
2019-01-09T02:49:55.510Z,0.67
2019-01-09T02:52:25.576Z,1.10
2019-01-09T02:54:56.452Z,0.97
2019-01-09T02:57:26.518Z,1.00
2019-01-09T02:59:57.341Z,1.00
2019-01-09T03:02:27.593Z,1.00
2019-01-09T03:04:58.054Z,0.97
2019-01-09T03:07:28.140Z,0.90
2019-01-09T03:09:58.947Z,0.90
2019-01-09T03:12:28.989Z,0.87
2019-01-09T03:14:59.541Z,0.90
2019-01-09T03:17:29.713Z,1.00
2019-01-09T03:20:00.427Z,1.00
2019-01-09T03:22:30.554Z,0.90
2019-01-09T03:25:00.951Z,0.73
2019-01-09T03:27:30.979Z,0.83
2019-01-09T03:30:01.998Z,1.17
2019-01-09T03:32:32.102Z,1.03
2019-01-09T03:35:02.326Z,0.83
2019-01-09T03:37:32.670Z,0.80
2019-01-09T03:40:02.853Z,0.90
2019-01-09T03:42:32.952Z,0.80
2019-01-09T03:45:03.076Z,0.63
2019-01-09T03:47:33.222Z,0.60
2019-01-09T03:50:03.422Z,0.90
2019-01-09T03:52:33.577Z,0.60
2019-01-09T03:55:03.702Z,0.80
2019-01-09T03:57:33.855Z,0.70
2019-01-09T04:00:05.339Z,0.80
2019-01-09T04:02:35.434Z,0.87
2019-01-09T04:05:06.428Z,0.70
2019-01-09T04:07:50.516Z,0.77
2019-01-09T04:10:20.613Z,0.60
2019-01-09T04:12:50.633Z,0.80
2019-01-09T04:15:20.858Z,0.93
2019-01-09T04:17:52.081Z,0.80
2019-01-09T04:20:22.088Z,0.80
2019-01-09T04:22:52.156Z,0.70
2019-01-09T04:25:22.252Z,0.73
2019-01-09T04:27:52.283Z,1.00
2019-01-09T04:30:22.356Z,0.73
2019-01-09T04:32:52.734Z,1.00
2019-01-09T04:35:22.811Z,0.80
2019-01-09T04:37:52.942Z,0.77
2019-01-09T04:40:23.028Z,0.90
2019-01-09T04:42:53.141Z,1.03
2019-01-09T04:45:23.197Z,0.97
2019-01-09T04:47:53.375Z,1.30
2019-01-09T04:50:23.476Z,0.90
2019-01-09T04:52:53.508Z,0.93
2019-01-09T04:55:23.564Z,0.80
2019-01-09T04:57:53.643Z,0.70
2019-01-09T05:00:23.698Z,1.20
2019-01-09T05:02:54.023Z,0.93
2019-01-09T05:05:24.194Z,1.73
2019-01-09T05:07:54.225Z,1.20
2019-01-09T05:10:24.325Z,1.10
2019-01-09T05:12:54.648Z,0.97
2019-01-09T05:15:25.063Z,1.73
2019-01-09T05:17:55.254Z,1.00
2019-01-09T05:20:25.497Z,1.30
2019-01-09T05:22:56.587Z,1.77
2019-01-09T05:25:26.597Z,0.97
2019-01-09T05:27:56.658Z,0.70
2019-01-09T05:30:26.720Z,1.00
2019-01-09T05:32:57.173Z,0.80
2019-01-09T05:35:27.462Z,0.60
2019-01-09T05:37:57.547Z,0.80
2019-01-09T05:40:27.677Z,0.87
2019-01-09T05:43:00.299Z,0.73
2019-01-09T05:45:29.685Z,0.60
2019-01-09T05:48:01.009Z,1.10
2019-01-09T05:50:31.124Z,0.70
2019-01-09T05:53:01.202Z,0.70
2019-01-09T05:55:33.346Z,0.73
2019-01-09T05:58:03.421Z,0.80
2019-01-09T06:00:35.725Z,0.80
2019-01-09T06:03:06.465Z,0.60
2019-01-09T06:05:36.679Z,0.50
2019-01-09T06:08:07.037Z,0.80
2019-01-09T06:10:37.139Z,0.50
2019-01-09T06:13:08.016Z,0.53
2019-01-09T06:15:38.444Z,0.50
2019-01-09T06:18:08.789Z,0.40
2019-01-09T06:20:38.821Z,0.60
2019-01-09T06:23:09.541Z,0.60
2019-01-09T06:25:40.046Z,0.60
2019-01-09T06:28:10.522Z,0.60
2019-01-09T06:30:42.136Z,0.57
2019-01-09T06:33:12.364Z,0.60
2019-01-09T06:35:42.477Z,0.60
2019-01-09T06:38:13.281Z,0.60
2019-01-09T06:40:43.395Z,0.70
2019-01-09T06:43:13.524Z,0.80
2019-01-09T06:45:44.104Z,0.80
2019-01-09T06:48:14.239Z,0.70
2019-01-09T06:50:44.344Z,0.70
2019-01-09T06:53:14.481Z,0.53
2019-01-09T06:55:44.597Z,0.40
2019-01-09T06:58:14.667Z,0.80
2019-01-09T07:00:44.781Z,0.53
2019-01-09T07:03:14.872Z,0.43
2019-01-09T07:05:45.024Z,0.50
2019-01-09T07:08:15.133Z,0.60
2019-01-09T07:10:45.241Z,0.50
2019-01-09T07:13:15.383Z,0.60
2019-01-09T07:15:45.487Z,0.60
2019-01-09T07:18:15.622Z,0.60
2019-01-09T07:20:45.799Z,0.70
2019-01-09T07:23:15.934Z,0.87
2019-01-09T07:25:46.061Z,0.93
2019-01-09T07:28:16.193Z,1.03
2019-01-09T07:30:46.307Z,1.00
2019-01-09T07:33:16.598Z,1.27
2019-01-09T07:35:46.904Z,1.20
2019-01-09T07:38:17.007Z,1.00
2019-01-09T07:40:47.056Z,1.20
2019-01-09T07:43:17.092Z,1.10
2019-01-09T07:45:47.173Z,1.20
2019-01-09T07:48:17.249Z,1.40
2019-01-09T07:50:47.412Z,1.20
2019-01-09T07:53:17.540Z,1.43
2019-01-09T07:55:47.631Z,1.43
2019-01-09T07:58:17.670Z,1.60
2019-01-09T08:00:47.759Z,1.70
2019-01-09T08:03:17.828Z,1.23
2019-01-09T08:05:48.329Z,1.90
2019-01-09T08:08:18.359Z,1.77
2019-01-09T08:10:48.459Z,1.60
2019-01-09T08:13:18.535Z,1.60
2019-01-09T08:15:49.788Z,1.63
2019-01-09T08:18:19.824Z,1.77
2019-01-09T08:20:50.721Z,2.00
2019-01-09T08:23:20.802Z,1.70
2019-01-09T08:25:50.871Z,1.70
2019-01-09T08:28:20.970Z,1.43
2019-01-09T08:30:52.532Z,1.87
2019-01-09T08:33:22.604Z,1.80
2019-01-09T08:35:53.448Z,1.73
2019-01-09T08:38:23.498Z,2.00
2019-01-09T08:40:53.732Z,2.00
2019-01-09T08:43:24.211Z,2.30
2019-01-09T08:45:54.293Z,1.83
2019-01-09T08:48:24.465Z,1.90
2019-01-09T08:50:54.663Z,1.87
2019-01-09T08:53:24.739Z,2.13
2019-01-09T08:55:54.809Z,1.77
2019-01-09T08:58:24.918Z,1.80
2019-01-09T09:00:55.091Z,1.90
2019-01-09T09:03:25.135Z,2.13
2019-01-09T09:05:55.316Z,2.07
2019-01-09T09:08:26.765Z,2.10
2019-01-09T09:10:57.784Z,3.23
2019-01-09T09:13:39.134Z,2.70
2019-01-09T09:16:10.693Z,2.53
2019-01-09T09:18:42.003Z,2.77
2019-01-09T09:21:12.576Z,3.53
2019-01-09T09:23:42.614Z,3.33
2019-01-09T09:26:13.094Z,3.40
2019-01-09T09:28:43.227Z,3.63
2019-01-09T09:31:14.064Z,3.47
2019-01-09T09:33:44.673Z,3.33
2019-01-09T09:36:14.873Z,3.67
2019-01-09T09:38:44.938Z,3.70
2019-01-09T09:41:15.119Z,3.63
2019-01-09T09:43:45.164Z,4.27
2019-01-09T09:46:15.344Z,4.40
2019-01-09T09:48:45.463Z,5.03
2019-01-09T09:51:15.628Z,4.77
2019-01-09T09:53:45.723Z,5.13
2019-01-09T09:56:15.973Z,5.30
2019-01-09T09:58:46.063Z,5.93
2019-01-09T10:01:16.347Z,6.17
2019-01-09T10:03:46.419Z,6.73
2019-01-09T10:06:16.543Z,5.50
2019-01-09T10:08:46.689Z,5.97
2019-01-09T10:11:16.953Z,6.33
2019-01-09T10:13:47.050Z,5.90
2019-01-09T10:16:18.117Z,6.87
2019-01-09T10:18:48.181Z,6.73
2019-01-09T10:21:18.393Z,6.47
2019-01-09T10:23:48.747Z,6.83
2019-01-09T10:26:18.844Z,6.20
2019-01-09T10:28:48.949Z,6.30
2019-01-09T10:31:19.389Z,6.70
2019-01-09T10:33:49.494Z,7.47
2019-01-09T10:36:19.559Z,7.13
2019-01-09T10:38:49.909Z,7.07
2019-01-09T10:41:20.447Z,7.20
2019-01-09T10:43:50.478Z,7.27
2019-01-09T10:46:20.530Z,7.03
2019-01-09T10:48:50.609Z,7.63
2019-01-09T10:51:21.659Z,6.93
2019-01-09T10:53:52.040Z,6.93
2019-01-09T10:56:22.134Z,6.80
2019-01-09T10:58:52.177Z,7.03
2019-01-09T11:01:22.489Z,7.20
2019-01-09T11:03:52.558Z,7.17
2019-01-09T11:06:22.609Z,6.87
2019-01-09T11:08:52.892Z,6.90
2019-01-09T11:11:23.368Z,7.77
2019-01-09T11:13:53.435Z,6.80
2019-01-09T11:16:23.513Z,7.43
2019-01-09T11:18:53.686Z,7.90
2019-01-09T11:21:24.026Z,7.33
2019-01-09T11:23:54.643Z,7.37
2019-01-09T11:26:24.705Z,6.70
2019-01-09T11:28:54.827Z,5.20
2019-01-09T11:31:25.402Z,5.20
2019-01-09T11:33:55.610Z,4.03
2019-01-09T11:36:25.685Z,3.53
2019-01-09T11:38:56.118Z,3.87
2019-01-09T11:41:26.372Z,3.17
2019-01-09T11:43:56.733Z,3.00
2019-01-09T11:46:26.796Z,5.00
2019-01-09T11:48:56.894Z,4.23
2019-01-09T11:51:27.351Z,5.40
2019-01-09T11:53:57.435Z,5.73
2019-01-09T11:56:27.574Z,5.73
2019-01-09T11:58:57.604Z,6.73
2019-01-09T12:01:27.697Z,7.07
2019-01-09T12:03:57.733Z,6.23
2019-01-09T12:06:28.110Z,7.23
2019-01-09T12:09:04.536Z,8.10
2019-01-09T12:11:30.361Z,7.93
2019-01-09T12:14:00.410Z,6.93
2019-01-09T12:16:30.489Z,6.53
2019-01-09T12:19:00.560Z,5.70
2019-01-09T12:21:30.614Z,6.60
2019-01-09T12:24:00.727Z,5.53
2019-01-09T12:26:30.889Z,6.13
2019-01-09T12:29:00.965Z,5.57
2019-01-09T12:31:31.059Z,4.80
2019-01-09T12:34:01.093Z,4.40
2019-01-09T12:36:31.150Z,3.00
2019-01-09T12:39:01.275Z,2.97
2019-01-09T12:41:31.442Z,2.70
2019-01-09T12:44:01.513Z,3.00
2019-01-09T12:46:31.607Z,3.50
2019-01-09T12:49:01.638Z,3.00
2019-01-09T12:51:31.702Z,3.50
2019-01-09T12:54:01.748Z,3.20
2019-01-09T12:56:31.898Z,3.70
2019-01-09T12:59:01.965Z,3.63
2019-01-09T13:01:31.998Z,2.77
2019-01-09T13:04:02.106Z,3.60
2019-01-09T13:06:32.182Z,3.63
2019-01-09T13:09:02.261Z,4.30
2019-01-09T13:11:32.533Z,3.60
2019-01-09T13:14:02.565Z,3.87
2019-01-09T13:16:32.655Z,4.20
2019-01-09T13:19:02.721Z,4.03
2019-01-09T13:21:32.930Z,4.20
2019-01-09T13:24:03.080Z,4.30
2019-01-09T13:26:33.228Z,4.17
2019-01-09T13:29:03.293Z,3.93
2019-01-09T13:31:33.491Z,2.63
2019-01-09T13:34:09.100Z,3.40
2019-01-09T13:36:39.816Z,3.17
2019-01-09T13:39:10.732Z,3.23
2019-01-09T13:41:40.852Z,3.07
2019-01-09T13:44:11.000Z,3.07
2019-01-09T13:46:41.156Z,3.07
2019-01-09T13:49:11.405Z,2.70
2019-01-09T13:51:42.466Z,2.63
2019-01-09T13:54:12.484Z,3.20
2019-01-09T13:56:42.552Z,2.70
2019-01-09T13:59:12.687Z,2.73
2019-01-09T14:01:42.727Z,3.30
2019-01-09T14:04:12.790Z,3.60
2019-01-09T14:06:43.258Z,3.27
2019-01-09T14:09:13.316Z,4.60
2019-01-09T14:11:43.363Z,3.93
2019-01-09T14:14:13.440Z,3.70
2019-01-09T14:16:45.342Z,3.00
2019-01-09T14:19:16.656Z,2.60
2019-01-09T14:21:47.215Z,2.30
2019-01-09T14:24:21.641Z,2.50
2019-01-09T14:26:55.906Z,2.30
2019-01-09T14:29:31.010Z,3.17
2019-01-09T14:32:02.184Z,3.27
2019-01-09T14:34:33.320Z,3.20
2019-01-09T14:37:04.136Z,3.73
2019-01-09T14:39:34.668Z,4.07
2019-01-09T14:42:05.788Z,4.03
2019-01-09T14:44:35.873Z,4.70
2019-01-09T14:47:05.987Z,3.93
2019-01-09T14:49:36.055Z,6.50
2019-01-09T14:52:06.171Z,6.13
2019-01-09T14:54:36.216Z,5.97
2019-01-09T14:57:06.480Z,5.27
2019-01-09T14:59:36.705Z,5.27
2019-01-09T15:02:06.851Z,4.40
2019-01-09T15:04:36.944Z,4.90
2019-01-09T15:07:07.002Z,4.33
2019-01-09T15:09:37.088Z,4.83
2019-01-09T15:12:07.401Z,5.60
2019-01-09T15:14:37.635Z,5.00
2019-01-09T15:17:08.135Z,5.37
2019-01-09T15:19:38.561Z,5.63
2019-01-09T15:22:09.185Z,5.70
2019-01-09T15:24:39.989Z,4.90
2019-01-09T15:27:10.363Z,6.07
2019-01-09T15:29:40.745Z,5.93
2019-01-09T15:32:10.878Z,5.77
2019-01-09T15:34:40.930Z,7.67
2019-01-09T15:37:11.003Z,8.37
2019-01-09T15:39:42.108Z,7.63
2019-01-09T15:42:12.160Z,7.37
2019-01-09T15:44:42.256Z,7.10
2019-01-09T15:47:12.319Z,8.10
2019-01-09T15:49:42.392Z,7.67
2019-01-09T15:52:12.771Z,7.67
2019-01-09T15:54:42.999Z,8.10
2019-01-09T15:57:13.044Z,6.60
2019-01-09T15:59:43.114Z,7.50
2019-01-09T16:02:13.176Z,7.80
2019-01-09T16:04:43.295Z,9.33
2019-01-09T16:07:13.373Z,10.07
2019-01-09T16:09:43.510Z,9.90
2019-01-09T16:12:13.607Z,11.03
2019-01-09T16:14:43.662Z,10.90
2019-01-09T16:17:13.699Z,12.77
2019-01-09T16:19:43.834Z,11.63
2019-01-09T16:22:13.944Z,10.97
2019-01-09T16:24:44.121Z,11.97
2019-01-09T16:27:14.494Z,11.93
2019-01-09T16:29:45.025Z,11.60
2019-01-09T16:32:15.173Z,10.23
2019-01-09T16:34:45.320Z,13.80
2019-01-09T16:37:34.448Z,13.70
2019-01-09T16:40:05.495Z,14.63
2019-01-09T16:42:35.579Z,13.33
2019-01-09T16:45:06.375Z,14.20
2019-01-09T16:47:36.519Z,14.80
2019-01-09T16:50:08.906Z,18.23
2019-01-09T16:52:39.755Z,15.20
2019-01-09T16:55:09.958Z,14.37
2019-01-09T16:57:41.725Z,15.60
2019-01-09T17:00:17.505Z,16.20
2019-01-09T17:02:50.313Z,16.47
2019-01-09T17:05:20.611Z,17.20
2019-01-09T17:07:51.644Z,17.83
2019-01-09T17:10:22.766Z,15.83
2019-01-09T17:12:52.867Z,16.27
2019-01-09T17:15:22.885Z,16.30
2019-01-09T17:17:53.168Z,16.13
2019-01-09T17:20:23.349Z,16.03
2019-01-09T17:22:53.424Z,17.83
2019-01-09T17:25:24.464Z,17.70
2019-01-09T17:27:55.629Z,17.37
2019-01-09T17:30:28.487Z,17.23
2019-01-09T17:33:01.063Z,18.07
2019-01-09T17:35:31.902Z,18.43
2019-01-09T17:38:02.487Z,18.37
2019-01-09T17:40:40.706Z,18.63
2019-01-09T17:43:05.176Z,19.37
2019-01-09T17:45:38.776Z,19.83
2019-01-09T17:48:11.248Z,19.63
2019-01-09T17:50:43.704Z,19.60
2019-01-09T17:53:21.892Z,22.03
2019-01-09T17:55:57.323Z,21.73
2019-01-09T17:58:36.649Z,22.47
2019-01-09T18:01:07.243Z,22.03
2019-01-09T18:03:37.981Z,23.23
2019-01-09T18:06:08.120Z,22.33
2019-01-09T18:08:39.477Z,22.03
2019-01-09T18:11:09.536Z,24.17
2019-01-09T18:13:40.157Z,23.90
2019-01-09T18:16:10.197Z,22.27
2019-01-09T18:18:41.244Z,23.27
2019-01-09T18:21:11.416Z,22.80
2019-01-09T18:23:41.714Z,23.30
2019-01-09T18:26:11.816Z,23.93
2019-01-09T18:28:41.995Z,23.00
2019-01-09T18:31:56.372Z,24.90
2019-01-09T18:34:44.408Z,23.67
2019-01-09T18:37:50.796Z,24.70
2019-01-09T18:40:47.608Z,26.07
2019-01-09T18:43:35.145Z,27.03
2019-01-09T18:46:37.332Z,28.03
2019-01-09T18:49:42.430Z,27.30
2019-01-09T18:52:30.677Z,27.97
2019-01-09T18:55:00.763Z,29.33
2019-01-09T18:57:30.965Z,31.23
2019-01-09T19:00:01.024Z,31.93
2019-01-09T19:02:31.860Z,30.07
2019-01-09T19:05:01.934Z,31.70
2019-01-09T19:07:33.225Z,27.87
2019-01-09T19:10:03.486Z,27.10
2019-01-09T19:12:34.709Z,25.30
2019-01-09T19:15:06.206Z,25.27
2019-01-09T19:17:36.425Z,25.97
2019-01-09T19:20:08.634Z,24.63
2019-01-09T19:22:39.245Z,25.93
2019-01-09T19:25:10.255Z,26.67
2019-01-09T19:27:41.076Z,26.97
2019-01-09T19:30:25.883Z,25.60
2019-01-09T19:32:55.965Z,24.13
2019-01-09T19:35:26.036Z,24.03
2019-01-09T19:37:56.269Z,23.53
2019-01-09T19:40:26.422Z,21.73
2019-01-09T19:42:57.508Z,21.77
2019-01-09T19:45:27.684Z,21.27
2019-01-09T19:47:57.722Z,19.37
2019-01-09T19:50:27.837Z,19.87
2019-01-09T19:52:57.971Z,20.53
2019-01-09T19:55:29.496Z,20.70
2019-01-09T19:57:59.681Z,19.83
2019-01-09T20:00:29.742Z,19.07
2019-01-09T20:02:59.949Z,20.17
2019-01-09T20:05:30.816Z,21.73
2019-01-09T20:08:00.823Z,21.63
2019-01-09T20:10:31.011Z,21.97
2019-01-09T20:13:01.093Z,22.93
2019-01-09T20:15:31.450Z,21.33
2019-01-09T20:18:01.648Z,20.60
2019-01-09T20:20:33.000Z,19.53
2019-01-09T20:23:03.270Z,18.77
2019-01-09T20:25:33.482Z,17.73
2019-01-09T20:28:03.613Z,18.13
2019-01-09T20:30:33.779Z,15.93
2019-01-09T20:33:05.836Z,16.27
2019-01-09T20:35:36.974Z,15.93
2019-01-09T20:38:07.174Z,16.20
2019-01-09T20:40:37.246Z,14.67
2019-01-09T20:43:07.379Z,15.37
2019-01-09T20:45:38.147Z,13.23
2019-01-09T20:48:08.214Z,12.83
2019-01-09T20:50:39.298Z,12.40
2019-01-09T20:53:11.104Z,12.90
2019-01-09T20:55:41.371Z,11.87
2019-01-09T20:58:11.585Z,12.07
2019-01-09T21:00:42.939Z,10.83
2019-01-09T21:03:13.903Z,10.20
2019-01-09T21:05:46.951Z,9.27
2019-01-09T21:08:22.004Z,9.60
2019-01-09T21:10:54.514Z,10.23
2019-01-09T21:13:27.413Z,10.50
2019-01-09T21:15:59.359Z,10.60
2019-01-09T21:18:29.902Z,10.80
2019-01-09T21:21:01.143Z,9.27
2019-01-09T21:23:32.208Z,9.83
2019-01-09T21:26:02.297Z,8.90
2019-01-09T21:28:32.320Z,8.73
2019-01-09T21:31:02.961Z,7.73
2019-01-09T21:33:34.753Z,7.47
2019-01-09T21:36:05.238Z,6.73
2019-01-09T21:38:35.340Z,7.00
2019-01-09T21:41:05.537Z,6.70
2019-01-09T21:43:35.666Z,6.60
2019-01-09T21:46:06.153Z,6.57
2019-01-09T21:48:36.315Z,6.40
2019-01-09T21:51:06.900Z,6.27
2019-01-09T21:53:37.215Z,7.47
2019-01-09T21:56:08.212Z,6.63
2019-01-09T21:58:43.211Z,6.37
2019-01-09T22:01:13.238Z,6.33
2019-01-09T22:03:43.679Z,6.43
2019-01-09T22:06:14.021Z,5.97
2019-01-09T22:08:44.485Z,5.97
2019-01-09T22:11:14.561Z,7.47
2019-01-09T22:13:44.642Z,7.10
2019-01-09T22:16:14.700Z,7.87
2019-01-09T22:18:44.965Z,6.90
2019-01-09T22:21:14.967Z,7.13
2019-01-09T22:23:45.064Z,6.93
2019-01-09T22:26:15.172Z,6.93
2019-01-09T22:28:45.282Z,7.23
2019-01-09T22:31:15.397Z,7.77
2019-01-09T22:33:45.462Z,7.87
2019-01-09T22:36:15.482Z,7.27
2019-01-09T22:38:45.527Z,6.93
2019-01-09T22:41:15.563Z,6.83
2019-01-09T22:43:45.613Z,6.10
2019-01-09T22:46:15.890Z,6.37
2019-01-09T22:48:45.937Z,5.50
2019-01-09T22:51:16.094Z,6.20
2019-01-09T22:53:46.145Z,6.23
2019-01-09T22:56:16.197Z,6.13
2019-01-09T22:58:46.297Z,6.43
2019-01-09T23:01:34.350Z,5.90
2019-01-09T23:04:05.195Z,5.10
2019-01-09T23:06:35.299Z,5.60
2019-01-09T23:09:08.694Z,6.77
2019-01-09T23:11:38.761Z,5.83
2019-01-09T23:14:08.871Z,6.83
2019-01-09T23:16:38.953Z,6.87
2019-01-09T23:19:09.085Z,6.73
2019-01-09T23:21:40.170Z,6.57
2019-01-09T23:24:10.824Z,6.37
2019-01-09T23:26:40.859Z,6.53
2019-01-09T23:29:10.937Z,6.87
2019-01-09T23:31:40.993Z,6.93
2019-01-09T23:34:11.032Z,7.03
2019-01-09T23:36:42.107Z,6.93
2019-01-09T23:39:12.141Z,7.40
2019-01-09T23:41:42.234Z,7.07
2019-01-09T23:44:12.288Z,7.83
2019-01-09T23:46:42.316Z,8.03
2019-01-09T23:49:12.435Z,7.93
2019-01-09T23:51:42.912Z,10.13
2019-01-09T23:54:12.978Z,11.40
2019-01-09T23:56:43.122Z,11.43
2019-01-09T23:59:13.159Z,11.97
